createdAt,value
2022-10-13T00:05:44.968Z,17.78
2022-10-13T00:11:29.349Z,17.77
2022-10-13T00:17:12.503Z,17.77
2022-10-13T00:22:55.831Z,17.75
2022-10-13T00:28:39.323Z,17.73
2022-10-13T00:34:22.688Z,17.73
2022-10-13T00:40:06.638Z,17.72
2022-10-13T00:45:50.927Z,17.7
2022-10-13T00:51:36.462Z,17.7
2022-10-13T00:57:19.866Z,17.7
2022-10-13T01:03:03.303Z,17.7
2022-10-13T01:08:46.515Z,17.7
2022-10-13T01:14:33.932Z,17.67
2022-10-13T01:20:32.349Z,17.7
2022-10-13T01:26:26.181Z,17.71
2022-10-13T01:32:12.717Z,17.71
2022-10-13T01:38:01.420Z,17.71
2022-10-13T01:43:46.985Z,17.7
2022-10-13T01:49:31.995Z,17.74
2022-10-13T01:55:15.974Z,17.72
2022-10-13T02:01:03.995Z,17.68
2022-10-13T02:06:50.363Z,17.68
2022-10-13T02:12:36.650Z,17.67
2022-10-13T02:18:25.969Z,17.69
2022-10-13T02:24:09.965Z,17.66
2022-10-13T02:29:54.559Z,17.66
2022-10-13T02:35:38.867Z,17.61
2022-10-13T02:41:23.251Z,17.61
2022-10-13T02:47:06.904Z,17.61
2022-10-13T02:52:50.039Z,17.6
2022-10-13T02:58:33.570Z,17.6
2022-10-13T03:04:17.023Z,17.58
2022-10-13T03:10:00.184Z,17.57
2022-10-13T03:15:43.384Z,17.56
2022-10-13T03:21:26.747Z,17.55
2022-10-13T03:27:10.102Z,17.53
2022-10-13T03:32:53.210Z,17.54
2022-10-13T03:38:36.274Z,17.54
2022-10-13T03:44:19.724Z,17.53
2022-10-13T03:50:02.941Z,17.53
2022-10-13T03:55:47.951Z,17.53
2022-10-13T04:01:32.131Z,17.53
2022-10-13T04:07:15.488Z,17.51
2022-10-13T04:12:58.591Z,17.51
2022-10-13T04:18:44.603Z,17.51
2022-10-13T04:24:28.085Z,17.49
2022-10-13T04:30:13.553Z,17.48
2022-10-13T04:35:56.862Z,17.47
2022-10-13T04:41:40.145Z,17.44
2022-10-13T04:47:23.191Z,17.43
2022-10-13T04:53:06.477Z,17.45
2022-10-13T04:58:49.713Z,17.43
2022-10-13T05:04:32.842Z,17.41
2022-10-13T05:10:16.179Z,17.4
2022-10-13T05:15:59.388Z,17.41
2022-10-13T05:21:43.531Z,17.4
2022-10-13T05:27:27.679Z,17.41
2022-10-13T05:33:11.149Z,17.41
2022-10-13T05:38:54.939Z,17.41
2022-10-13T05:44:38.469Z,17.4
2022-10-13T05:50:21.750Z,17.39
2022-10-13T05:56:07.206Z,17.38
2022-10-13T06:01:50.999Z,17.4
2022-10-13T06:07:34.758Z,17.41
2022-10-13T06:13:18.146Z,17.42
2022-10-13T06:19:02.492Z,17.44
2022-10-13T06:24:45.810Z,17.48
2022-10-13T06:30:29.390Z,17.53
2022-10-13T06:36:13.107Z,17.54
2022-10-13T06:41:56.506Z,17.56
2022-10-13T06:47:39.801Z,17.58
2022-10-13T06:53:22.975Z,17.58
2022-10-13T06:59:07.171Z,17.59
2022-10-13T07:04:50.520Z,17.63
2022-10-13T07:10:33.990Z,17.66
2022-10-13T07:16:16.982Z,17.63
2022-10-13T07:22:00.195Z,17.66
2022-10-13T07:27:43.432Z,17.66
2022-10-13T07:33:26.788Z,17.71
2022-10-13T07:39:12.099Z,17.75
2022-10-13T07:44:55.139Z,17.85
2022-10-13T07:50:38.260Z,18.04
2022-10-13T07:56:22.431Z,18.15
2022-10-13T08:02:06.178Z,18.23
2022-10-13T08:07:49.516Z,18.35
2022-10-13T08:13:40.061Z,18.41
2022-10-13T08:19:24.058Z,18.44
2022-10-13T08:25:07.978Z,18.5
2022-10-13T08:30:51.099Z,18.6
2022-10-13T08:36:36.231Z,18.74
2022-10-13T08:42:21.288Z,18.87
2022-10-13T08:48:07.227Z,19.06
2022-10-13T08:53:51.365Z,19.29
2022-10-13T08:59:35.659Z,19.48
2022-10-13T09:05:25.052Z,19.58
2022-10-13T09:11:08.475Z,19.72
2022-10-13T09:16:53.199Z,19.7
2022-10-13T09:22:37.115Z,19.74
2022-10-13T09:28:22.800Z,19.74
2022-10-13T09:34:11.458Z,19.78
2022-10-13T09:40:09.142Z,19.9
2022-10-13T09:45:53.150Z,19.93
2022-10-13T09:51:38.617Z,19.93
2022-10-13T09:57:28.485Z,19.92
2022-10-13T10:03:15.462Z,19.95
2022-10-13T10:09:04.769Z,20.16
2022-10-13T10:14:48.224Z,20.43
2022-10-13T10:20:47.747Z,20.63
2022-10-13T10:26:35.830Z,20.8
2022-10-13T10:32:25.705Z,20.83
2022-10-13T10:38:15.674Z,21.04
2022-10-13T10:44:00.255Z,21.13
2022-10-13T10:49:43.905Z,21.08
2022-10-13T10:55:31.190Z,20.96
2022-10-13T11:01:22.664Z,20.87
2022-10-13T11:07:09.502Z,20.99
2022-10-13T11:13:04.305Z,20.95
2022-10-13T11:19:03.557Z,21.02
2022-10-13T11:24:50.126Z,21.22
2022-10-13T11:30:44.355Z,21.17
2022-10-13T11:36:44.330Z,21.43
2022-10-13T11:42:37.431Z,21.43
2022-10-13T11:48:41.134Z,21.58
2022-10-13T11:54:30.484Z,21.76
2022-10-13T12:00:18.561Z,21.93
2022-10-13T12:06:03.127Z,21.87
2022-10-13T12:11:46.837Z,21.82
2022-10-13T12:17:32.623Z,21.94
2022-10-13T12:23:18.350Z,22.24
2022-10-13T12:29:02.017Z,22.18
2022-10-13T12:34:45.388Z,22.27
2022-10-13T12:40:29.085Z,22.42
2022-10-13T12:46:12.134Z,22.56
2022-10-13T12:51:57.310Z,22.71
2022-10-13T12:57:40.706Z,22.76
2022-10-13T13:03:27.170Z,22.67
2022-10-13T13:09:21.717Z,22.56
2022-10-13T13:15:15.795Z,22.7
2022-10-13T13:20:58.997Z,22.56
2022-10-13T13:26:45.285Z,22.32
2022-10-13T13:32:28.656Z,22.09
2022-10-13T13:38:12.883Z,22.07
2022-10-13T13:43:56.175Z,22.03
2022-10-13T13:49:39.496Z,22.08
2022-10-13T13:55:22.870Z,22.04
2022-10-13T14:01:06.168Z,21.99
2022-10-13T14:06:50.668Z,21.93
2022-10-13T14:12:34.094Z,21.9
2022-10-13T14:18:17.398Z,21.85
2022-10-13T14:24:00.712Z,21.83
2022-10-13T14:29:44.126Z,21.74
2022-10-13T14:35:27.277Z,21.62
2022-10-13T14:41:10.486Z,21.55
2022-10-13T14:46:53.806Z,21.54
2022-10-13T14:52:36.927Z,21.58
2022-10-13T14:58:20.239Z,21.58
2022-10-13T15:04:03.436Z,21.69
2022-10-13T15:09:52.630Z,21.62
2022-10-13T15:15:49.897Z,21.65
2022-10-13T15:21:32.990Z,21.67
2022-10-13T15:27:16.698Z,21.54
2022-10-13T15:33:00.232Z,21.52
2022-10-13T15:38:43.800Z,21.46
2022-10-13T15:44:28.178Z,21.4
2022-10-13T15:50:25.822Z,21.32
2022-10-13T15:56:09.131Z,21.28
2022-10-13T16:01:52.445Z,21.19
2022-10-13T16:07:35.975Z,21.14
2022-10-13T16:13:19.251Z,21.01
2022-10-13T16:19:02.561Z,20.93
2022-10-13T16:24:46.850Z,20.85
2022-10-13T16:30:30.515Z,20.78
2022-10-13T16:36:14.871Z,20.67
2022-10-13T16:41:58.140Z,20.57
2022-10-13T16:47:41.494Z,20.46
2022-10-13T16:53:24.696Z,20.37
2022-10-13T16:59:07.974Z,20.25
2022-10-13T17:04:51.161Z,20.16
2022-10-13T17:10:34.470Z,20.1
2022-10-13T17:16:18.191Z,20.05
2022-10-13T17:22:01.328Z,20
2022-10-13T17:27:44.826Z,19.93
2022-10-13T17:33:29.308Z,19.88
2022-10-13T17:39:12.595Z,19.86
2022-10-13T17:44:56.212Z,19.82
2022-10-13T17:50:39.591Z,19.81
2022-10-13T17:56:24.142Z,19.78
2022-10-13T18:02:08.430Z,19.76
2022-10-13T18:07:56.146Z,19.74
2022-10-13T18:13:39.307Z,19.71
2022-10-13T18:19:22.842Z,19.7
2022-10-13T18:25:06.866Z,19.7
2022-10-13T18:30:50.174Z,19.69
2022-10-13T18:36:34.433Z,19.65
2022-10-13T18:42:17.635Z,19.6
2022-10-13T18:48:00.742Z,19.59
2022-10-13T18:53:44.472Z,19.54
2022-10-13T18:59:27.571Z,19.51
2022-10-13T19:05:11.382Z,19.5
2022-10-13T19:10:54.695Z,19.46
2022-10-13T19:16:39.907Z,19.43
2022-10-13T19:22:23.120Z,19.42
2022-10-13T19:28:06.396Z,19.38
2022-10-13T19:33:50.400Z,19.35
2022-10-13T19:39:33.986Z,19.33
2022-10-13T19:45:18.348Z,19.32
2022-10-13T19:51:03.939Z,19.31
2022-10-13T19:56:48.853Z,19.29
2022-10-13T20:02:32.448Z,19.3
2022-10-13T20:08:16.019Z,19.27
2022-10-13T20:14:00.371Z,19.25
2022-10-13T20:19:44.177Z,19.47
2022-10-13T20:25:28.541Z,19.36
2022-10-13T20:31:12.836Z,19.3
2022-10-13T20:36:57.126Z,19.29
2022-10-13T20:42:40.774Z,19.28
2022-10-13T20:48:25.338Z,19.25
2022-10-13T20:54:19.815Z,19.28
2022-10-13T21:00:03.836Z,19.21
2022-10-13T21:05:47.429Z,19.18
2022-10-13T21:11:30.906Z,19.16
2022-10-13T21:17:14.268Z,19.18
2022-10-13T21:22:58.274Z,19.16
2022-10-13T21:28:42.169Z,19.12
2022-10-13T21:34:26.225Z,19.09
2022-10-13T21:40:10.170Z,19.07
2022-10-13T21:45:53.350Z,19.05
2022-10-13T21:51:37.868Z,19.06
2022-10-13T21:57:21.354Z,19.03
2022-10-13T22:03:05.509Z,19.01
2022-10-13T22:08:49.724Z,19.02
2022-10-13T22:14:32.816Z,19.21
2022-10-13T22:20:16.130Z,19.16
2022-10-13T22:25:59.630Z,19.07
2022-10-13T22:31:42.967Z,19.03
2022-10-13T22:37:26.476Z,19.01
2022-10-13T22:43:09.659Z,18.99
2022-10-13T22:48:53.070Z,19.01
2022-10-13T22:54:36.390Z,18.99
2022-10-13T23:00:20.055Z,18.97
2022-10-13T23:06:03.412Z,19
2022-10-13T23:11:46.544Z,18.97
2022-10-13T23:17:29.796Z,18.96
2022-10-13T23:23:13.894Z,18.94
2022-10-13T23:28:57.529Z,18.92
2022-10-13T23:34:41.269Z,18.93
2022-10-13T23:40:24.645Z,18.91
2022-10-13T23:46:08.028Z,18.91
2022-10-13T23:51:51.190Z,18.91
2022-10-13T23:57:34.691Z,18.89
